createdAt,value
2017-03-04T00:00:58.190Z,0
2017-03-04T00:02:08.080Z,0
2017-03-04T00:03:17.658Z,0
2017-03-04T00:04:27.236Z,0
2017-03-04T00:05:36.428Z,0
2017-03-04T00:06:45.990Z,0
2017-03-04T00:07:57.090Z,0
2017-03-04T00:09:06.279Z,0
2017-03-04T00:10:15.459Z,0
2017-03-04T00:11:24.584Z,0
2017-03-04T00:12:33.691Z,0
2017-03-04T00:13:42.797Z,0
2017-03-04T00:14:52.730Z,0
2017-03-04T00:16:01.913Z,0
2017-03-04T00:17:11.487Z,0
2017-03-04T00:18:21.858Z,0
2017-03-04T00:19:31.028Z,0
2017-03-04T00:20:40.588Z,0
2017-03-04T00:21:50.555Z,0
2017-03-04T00:23:00.473Z,0
2017-03-04T00:24:09.623Z,0
2017-03-04T00:25:20.308Z,0
2017-03-04T00:26:30.253Z,0
2017-03-04T00:27:39.831Z,0
2017-03-04T00:28:50.324Z,0
2017-03-04T00:29:59.501Z,0
2017-03-04T00:31:08.700Z,0
2017-03-04T00:32:18.653Z,0
2017-03-04T00:33:27.843Z,0
2017-03-04T00:34:37.784Z,0
2017-03-04T00:35:46.958Z,0
2017-03-04T00:36:57.109Z,0
2017-03-04T00:38:07.066Z,0
2017-03-04T00:39:16.213Z,0
2017-03-04T00:40:26.153Z,0
2017-03-04T00:41:36.109Z,0
2017-03-04T00:42:46.083Z,0
2017-03-04T00:43:55.658Z,0
2017-03-04T00:45:06.003Z,0
2017-03-04T00:46:15.579Z,0
2017-03-04T00:47:25.141Z,0
2017-03-04T00:48:34.349Z,0
2017-03-04T00:49:43.963Z,0
2017-03-04T00:50:53.527Z,0
2017-03-04T00:52:03.414Z,0
2017-03-04T00:53:13.176Z,0
2017-03-04T00:54:23.070Z,0
2017-03-04T00:55:32.627Z,0
2017-03-04T00:56:42.577Z,0
2017-03-04T00:57:52.091Z,0
2017-03-04T00:59:02.026Z,0
2017-03-04T01:00:11.594Z,0
2017-03-04T01:01:21.551Z,0
2017-03-04T01:02:30.356Z,0
2017-03-04T01:03:40.303Z,0
2017-03-04T01:04:49.892Z,0
2017-03-04T01:05:59.468Z,0
2017-03-04T01:07:09.035Z,0
2017-03-04T01:08:18.626Z,0
2017-03-04T01:09:28.583Z,0
2017-03-04T01:10:37.725Z,0
2017-03-04T01:11:46.931Z,0
2017-03-04T01:12:55.723Z,0
2017-03-04T01:14:05.686Z,0
2017-03-04T01:15:15.259Z,0
2017-03-04T01:16:24.455Z,0
2017-03-04T01:17:34.798Z,0
2017-03-04T01:18:45.140Z,0
2017-03-04T01:19:54.709Z,0
2017-03-04T01:21:04.682Z,0
2017-03-04T01:22:14.656Z,0
2017-03-04T01:23:23.844Z,0
2017-03-04T01:24:33.371Z,0
2017-03-04T01:25:42.521Z,0
2017-03-04T01:26:51.703Z,0
2017-03-04T01:28:01.266Z,0
2017-03-04T01:29:10.393Z,0
2017-03-04T01:30:19.577Z,0
2017-03-04T01:31:29.915Z,0
2017-03-04T01:32:40.255Z,0
2017-03-04T01:33:49.485Z,0
2017-03-04T01:34:58.628Z,0
2017-03-04T01:36:08.186Z,0
2017-03-04T01:37:17.760Z,0
2017-03-04T01:38:27.320Z,0
2017-03-04T01:39:37.209Z,0
2017-03-04T01:40:46.417Z,0
2017-03-04T01:41:56.778Z,0
2017-03-04T01:43:05.917Z,0
2017-03-04T01:44:15.111Z,0
2017-03-04T01:45:24.691Z,0
2017-03-04T01:46:33.865Z,0
2017-03-04T01:47:43.424Z,0
2017-03-04T01:48:53.388Z,0
2017-03-04T01:50:03.718Z,0
2017-03-04T01:51:14.063Z,0
2017-03-04T01:52:23.248Z,0
2017-03-04T01:53:33.205Z,0
2017-03-04T01:54:43.549Z,0
2017-03-04T01:55:53.507Z,0
2017-03-04T01:57:02.767Z,0
2017-03-04T01:58:12.368Z,0
2017-03-04T01:59:22.313Z,0
2017-03-04T02:00:31.835Z,0
2017-03-04T02:01:40.939Z,0
2017-03-04T02:02:50.900Z,0
2017-03-04T02:04:00.120Z,0
2017-03-04T02:05:09.257Z,0
2017-03-04T02:06:19.221Z,0
2017-03-04T02:07:29.184Z,0
2017-03-04T02:08:38.761Z,0
2017-03-04T02:09:48.332Z,0
2017-03-04T02:10:58.097Z,0
2017-03-04T02:12:08.082Z,0
2017-03-04T02:13:18.030Z,0
2017-03-04T02:14:28.021Z,0
2017-03-04T02:15:37.551Z,0
2017-03-04T02:16:47.111Z,0
2017-03-04T02:17:56.693Z,0
2017-03-04T02:19:06.261Z,0
2017-03-04T02:20:16.590Z,0
2017-03-04T02:21:26.562Z,0
2017-03-04T02:22:36.137Z,0
2017-03-04T02:23:46.462Z,0
2017-03-04T02:24:55.897Z,0
2017-03-04T02:26:05.465Z,0
2017-03-04T02:27:15.028Z,0
2017-03-04T02:28:24.997Z,0
2017-03-04T02:29:35.335Z,0
2017-03-04T02:30:44.870Z,0
2017-03-04T02:31:54.804Z,0
2017-03-04T02:33:04.355Z,0
2017-03-04T02:34:13.921Z,0
2017-03-04T02:35:23.821Z,0
2017-03-04T02:36:33.355Z,0
2017-03-04T02:37:42.889Z,0
2017-03-04T02:38:52.046Z,0
2017-03-04T02:40:00.841Z,0
2017-03-04T02:41:10.406Z,0
2017-03-04T02:42:19.999Z,0
2017-03-04T02:43:28.739Z,0
2017-03-04T02:44:37.860Z,0
2017-03-04T02:45:47.415Z,0
2017-03-04T02:46:56.942Z,0
2017-03-04T02:48:06.916Z,0
2017-03-04T02:49:17.287Z,0
2017-03-04T02:50:27.261Z,0
2017-03-04T02:51:37.192Z,0
2017-03-04T02:52:47.148Z,0
2017-03-04T02:53:56.358Z,0
2017-03-04T02:55:05.469Z,0
2017-03-04T02:56:15.816Z,0
2017-03-04T02:57:25.375Z,0
2017-03-04T02:58:34.504Z,0
2017-03-04T02:59:43.667Z,0
2017-03-04T03:00:53.285Z,0
2017-03-04T03:02:03.649Z,0
2017-03-04T03:03:13.646Z,0
2017-03-04T03:04:22.848Z,0
2017-03-04T03:05:32.032Z,0
2017-03-04T03:06:41.610Z,0
2017-03-04T03:07:51.174Z,0
2017-03-04T03:09:01.548Z,0
2017-03-04T03:10:11.913Z,0
2017-03-04T03:11:21.509Z,0
2017-03-04T03:12:31.069Z,0
2017-03-04T03:13:40.641Z,0
2017-03-04T03:14:50.603Z,0
2017-03-04T03:16:00.169Z,0
2017-03-04T03:17:10.091Z,0
2017-03-04T03:18:20.401Z,0
2017-03-04T03:19:29.577Z,0
2017-03-04T03:20:39.546Z,0
2017-03-04T03:21:49.883Z,0
2017-03-04T03:23:00.221Z,0
2017-03-04T03:24:10.572Z,0
2017-03-04T03:25:20.151Z,0
2017-03-04T03:26:30.142Z,0
2017-03-04T03:27:39.268Z,0
2017-03-04T03:28:48.453Z,0
2017-03-04T03:29:57.257Z,0
2017-03-04T03:31:06.839Z,0
2017-03-04T03:32:16.830Z,0
2017-03-04T03:33:32.760Z,0
2017-03-04T03:34:42.542Z,0
2017-03-04T03:35:51.755Z,0
2017-03-04T03:37:01.780Z,0
2017-03-04T03:38:11.371Z,0
2017-03-04T03:39:20.185Z,0
2017-03-04T03:40:30.014Z,0
2017-03-04T03:41:39.601Z,0
2017-03-04T03:42:49.980Z,0
2017-03-04T03:43:59.989Z,0
2017-03-04T03:45:09.983Z,0
2017-03-04T03:46:19.215Z,0
2017-03-04T03:47:28.751Z,0
2017-03-04T03:48:38.320Z,0
2017-03-04T03:49:48.683Z,0
2017-03-04T03:50:58.268Z,0
2017-03-04T03:52:08.624Z,0
2017-03-04T03:53:17.813Z,0
2017-03-04T03:54:27.404Z,0
2017-03-04T03:55:37.383Z,0
2017-03-04T03:56:47.753Z,0
2017-03-04T03:57:58.124Z,0
2017-03-04T03:59:08.122Z,0
2017-03-04T04:00:17.327Z,0
2017-03-04T04:01:27.300Z,0
2017-03-04T04:02:37.293Z,0
2017-03-04T04:03:47.597Z,0
2017-03-04T04:04:57.386Z,0
2017-03-04T04:06:06.990Z,0
2017-03-04T04:07:17.347Z,0
2017-03-04T04:08:26.567Z,0
2017-03-04T04:09:36.540Z,0
2017-03-04T04:10:46.513Z,0
2017-03-04T04:11:56.887Z,0
2017-03-04T04:13:06.086Z,0
2017-03-04T04:14:15.708Z,0
2017-03-04T04:15:26.087Z,0
2017-03-04T04:16:35.235Z,0
2017-03-04T04:17:44.819Z,0
2017-03-04T04:18:54.425Z,0
2017-03-04T04:20:04.008Z,0
2017-03-04T04:21:13.235Z,0
2017-03-04T04:22:22.269Z,0
2017-03-04T04:23:32.261Z,0
2017-03-04T04:24:41.865Z,0
2017-03-04T04:25:51.463Z,0
2017-03-04T04:27:00.669Z,0
2017-03-04T04:28:10.661Z,0
2017-03-04T04:29:20.254Z,0
2017-03-04T04:30:29.070Z,0
2017-03-04T04:31:38.260Z,0
2017-03-04T04:32:47.450Z,0
2017-03-04T04:33:57.014Z,0
2017-03-04T04:35:06.937Z,0
2017-03-04T04:36:16.466Z,0
2017-03-04T04:37:25.655Z,0
2017-03-04T04:38:35.633Z,0
2017-03-04T04:39:45.252Z,0
2017-03-04T04:40:55.570Z,0
2017-03-04T04:42:04.402Z,0
2017-03-04T04:43:14.779Z,0
2017-03-04T04:44:24.389Z,0
2017-03-04T04:45:34.367Z,0
2017-03-04T04:46:43.560Z,0
2017-03-04T04:47:52.380Z,0
2017-03-04T04:49:01.577Z,0
2017-03-04T04:50:11.157Z,0
2017-03-04T04:51:20.723Z,0
2017-03-04T04:52:30.281Z,0
2017-03-04T04:53:39.138Z,0
2017-03-04T04:54:49.503Z,0
2017-03-04T04:55:58.656Z,0
2017-03-04T04:57:09.024Z,0
2017-03-04T04:58:18.626Z,0
2017-03-04T04:59:28.988Z,0
2017-03-04T05:00:38.214Z,0
2017-03-04T05:01:47.442Z,0
2017-03-04T05:02:56.257Z,0
2017-03-04T05:04:06.238Z,0
2017-03-04T05:05:15.826Z,0
2017-03-04T05:06:25.046Z,0
2017-03-04T05:07:35.029Z,0
2017-03-04T05:08:44.610Z,0
2017-03-04T05:09:54.188Z,0
2017-03-04T05:11:03.430Z,0
2017-03-04T05:12:13.031Z,0
2017-03-04T05:13:22.624Z,0
2017-03-04T05:14:32.617Z,0
2017-03-04T05:15:42.562Z,0
2017-03-04T05:16:52.495Z,0
2017-03-04T05:18:02.036Z,0
2017-03-04T05:19:12.014Z,0
2017-03-04T05:20:21.988Z,0
2017-03-04T05:21:31.632Z,0
2017-03-04T05:22:41.229Z,0
2017-03-04T05:23:51.608Z,0
2017-03-04T05:25:01.979Z,0
2017-03-04T05:26:11.944Z,0
2017-03-04T05:27:21.549Z,0
2017-03-04T05:28:31.935Z,0
2017-03-04T05:29:41.539Z,0
2017-03-04T05:30:51.913Z,0
2017-03-04T05:32:01.122Z,0
2017-03-04T05:33:11.113Z,0
2017-03-04T05:34:19.917Z,0
2017-03-04T05:35:29.454Z,0
2017-03-04T05:36:38.598Z,0
2017-03-04T05:37:48.896Z,0
2017-03-04T05:38:59.247Z,0
2017-03-04T05:40:09.221Z,0
2017-03-04T05:41:19.208Z,0
2017-03-04T05:42:29.192Z,0
2017-03-04T05:43:39.172Z,0
2017-03-04T05:44:48.768Z,0
2017-03-04T05:45:58.307Z,0
2017-03-04T05:47:07.491Z,0
2017-03-04T05:48:17.461Z,0
2017-03-04T05:49:27.055Z,0
2017-03-04T05:50:36.651Z,0
2017-03-04T05:51:45.480Z,0
2017-03-04T05:52:55.078Z,0
2017-03-04T05:54:04.680Z,4
2017-03-04T05:55:13.884Z,4
2017-03-04T05:56:24.258Z,0
2017-03-04T05:57:34.234Z,4
2017-03-04T05:58:43.385Z,4
2017-03-04T05:59:53.324Z,4
2017-03-04T06:01:03.309Z,4
2017-03-04T06:02:13.274Z,8
2017-03-04T06:03:22.807Z,8
2017-03-04T06:04:32.331Z,12
2017-03-04T06:05:41.905Z,12
2017-03-04T06:06:51.887Z,16
2017-03-04T06:08:01.857Z,16
2017-03-04T06:09:11.050Z,16
2017-03-04T06:10:20.207Z,20
2017-03-04T06:11:30.560Z,20
2017-03-04T06:12:39.754Z,20
2017-03-04T06:13:50.119Z,24
2017-03-04T06:14:59.708Z,24
2017-03-04T06:16:10.084Z,28
2017-03-04T06:17:20.452Z,32
2017-03-04T06:18:31.209Z,32
2017-03-04T06:19:41.145Z,36
2017-03-04T06:20:49.882Z,40
2017-03-04T06:22:00.285Z,44
2017-03-04T06:23:09.813Z,48
2017-03-04T06:24:19.389Z,52
2017-03-04T06:25:28.228Z,56
2017-03-04T06:26:37.044Z,60
2017-03-04T06:27:46.262Z,68
2017-03-04T06:28:55.479Z,72
2017-03-04T06:30:05.825Z,76
2017-03-04T06:31:15.361Z,80
2017-03-04T06:32:25.332Z,84
2017-03-04T06:33:35.301Z,84
2017-03-04T06:34:45.615Z,92
2017-03-04T06:35:55.545Z,96
2017-03-04T06:37:04.724Z,100
2017-03-04T06:38:14.706Z,104
2017-03-04T06:39:23.939Z,108
2017-03-04T06:40:33.927Z,116
2017-03-04T06:41:44.262Z,116
2017-03-04T06:42:54.615Z,124
2017-03-04T06:44:04.157Z,124
2017-03-04T06:45:14.526Z,128
2017-03-04T06:46:24.107Z,132
2017-03-04T06:47:34.094Z,140
2017-03-04T06:48:44.036Z,144
2017-03-04T06:49:54.003Z,152
2017-03-04T06:51:03.598Z,160
2017-03-04T06:52:13.193Z,164
2017-03-04T06:53:23.577Z,176
2017-03-04T06:54:33.167Z,180
2017-03-04T06:55:42.768Z,180
2017-03-04T06:56:52.351Z,188
2017-03-04T06:58:01.575Z,192
2017-03-04T06:59:11.157Z,192
2017-03-04T07:00:21.150Z,200
2017-03-04T07:01:30.712Z,204
2017-03-04T07:02:40.692Z,212
2017-03-04T07:03:50.652Z,212
2017-03-04T07:05:01.023Z,212
2017-03-04T07:06:10.637Z,220
2017-03-04T07:07:21.009Z,228
2017-03-04T07:08:30.940Z,240
2017-03-04T07:09:39.769Z,248
2017-03-04T07:10:49.364Z,256
2017-03-04T07:11:59.332Z,268
2017-03-04T07:13:09.321Z,280
2017-03-04T07:14:18.856Z,292
2017-03-04T07:15:28.051Z,296
2017-03-04T07:16:38.016Z,308
2017-03-04T07:17:48.000Z,320
2017-03-04T07:18:56.803Z,332
2017-03-04T07:20:06.400Z,340
2017-03-04T07:21:16.380Z,352
2017-03-04T07:22:26.351Z,368
2017-03-04T07:23:36.281Z,372
2017-03-04T07:24:45.900Z,372
2017-03-04T07:25:55.455Z,368
2017-03-04T07:27:05.417Z,364
2017-03-04T07:28:15.383Z,360
2017-03-04T07:29:24.143Z,360
2017-03-04T07:30:33.743Z,364
2017-03-04T07:31:43.327Z,372
2017-03-04T07:32:52.938Z,376
2017-03-04T07:34:02.473Z,388
2017-03-04T07:35:12.079Z,396
2017-03-04T07:36:22.843Z,416
2017-03-04T07:37:33.619Z,432
2017-03-04T07:38:42.836Z,452
2017-03-04T07:39:53.610Z,460
2017-03-04T07:41:02.807Z,472
2017-03-04T07:42:12.741Z,484
2017-03-04T07:43:21.923Z,500
2017-03-04T07:44:32.608Z,520
2017-03-04T07:45:42.188Z,536
2017-03-04T07:46:51.791Z,556
2017-03-04T07:48:01.375Z,576
2017-03-04T07:49:10.610Z,584
2017-03-04T07:50:20.229Z,596
2017-03-04T07:51:29.436Z,616
2017-03-04T07:52:38.575Z,640
2017-03-04T07:53:48.179Z,664
2017-03-04T07:54:57.758Z,676
2017-03-04T07:56:06.933Z,696
2017-03-04T07:57:16.554Z,720
2017-03-04T07:58:25.754Z,744
2017-03-04T07:59:34.950Z,764
2017-03-04T08:00:43.713Z,776
2017-03-04T08:01:52.522Z,792
2017-03-04T08:03:02.106Z,808
2017-03-04T08:04:10.922Z,820
2017-03-04T08:05:20.501Z,836
2017-03-04T08:06:29.720Z,864
2017-03-04T08:07:39.688Z,896
2017-03-04T08:08:49.226Z,936
2017-03-04T08:09:58.817Z,988
2017-03-04T08:11:08.804Z,1036
2017-03-04T08:12:18.391Z,1088
2017-03-04T08:13:27.609Z,1144
2017-03-04T08:14:37.190Z,1192
2017-03-04T08:15:46.385Z,1212
2017-03-04T08:16:56.385Z,1300
2017-03-04T08:18:05.913Z,1396
2017-03-04T08:19:15.477Z,1412
2017-03-04T08:20:24.308Z,1492
2017-03-04T08:21:33.472Z,1520
2017-03-04T08:22:42.997Z,1480
2017-03-04T08:23:52.963Z,1496
2017-03-04T08:25:02.696Z,1532
2017-03-04T08:26:12.311Z,1560
2017-03-04T08:27:21.919Z,1540
2017-03-04T08:28:31.518Z,1532
2017-03-04T08:29:40.716Z,1528
2017-03-04T08:30:50.262Z,1524
2017-03-04T08:32:00.938Z,1524
2017-03-04T08:33:09.775Z,1564
2017-03-04T08:34:19.364Z,1580
2017-03-04T08:35:28.585Z,1656
2017-03-04T08:36:37.797Z,1700
2017-03-04T08:37:47.397Z,1744
2017-03-04T08:38:56.980Z,1768
2017-03-04T08:40:06.961Z,1820
2017-03-04T08:41:16.559Z,1876
2017-03-04T08:42:25.767Z,1908
2017-03-04T08:43:36.155Z,1832
2017-03-04T08:44:45.738Z,1844
2017-03-04T08:45:54.966Z,1828
2017-03-04T08:47:04.581Z,1812
2017-03-04T08:48:14.169Z,1760
2017-03-04T08:49:24.154Z,1676
2017-03-04T08:50:33.691Z,1596
2017-03-04T08:51:43.641Z,1536
2017-03-04T08:52:53.612Z,1480
2017-03-04T08:54:03.063Z,1440
2017-03-04T08:55:13.054Z,1408
2017-03-04T08:56:22.214Z,1380
2017-03-04T08:57:31.793Z,1352
2017-03-04T08:58:41.010Z,1352
2017-03-04T08:59:50.584Z,1372
2017-03-04T09:01:00.190Z,1412
2017-03-04T09:02:10.171Z,1460
2017-03-04T09:03:20.933Z,1512
2017-03-04T09:04:30.924Z,1584
2017-03-04T09:05:40.541Z,1640
2017-03-04T09:06:50.113Z,1680
2017-03-04T09:08:00.724Z,1760
2017-03-04T09:09:10.730Z,1824
2017-03-04T09:10:19.928Z,1800
2017-03-04T09:11:29.912Z,1764
2017-03-04T09:12:39.538Z,1756
2017-03-04T09:13:49.136Z,1732
2017-03-04T09:14:59.118Z,1712
2017-03-04T09:16:09.121Z,1700
2017-03-04T09:17:18.338Z,1648
2017-03-04T09:18:27.561Z,1572
2017-03-04T09:19:37.886Z,1500
2017-03-04T09:20:47.059Z,1412
2017-03-04T09:21:56.263Z,1380
2017-03-04T09:23:06.278Z,1380
2017-03-04T09:24:15.867Z,1388
2017-03-04T09:25:25.846Z,1376
2017-03-04T09:26:36.268Z,1356
2017-03-04T09:27:45.897Z,1340
2017-03-04T09:28:55.893Z,1352
2017-03-04T09:30:05.332Z,1344
2017-03-04T09:31:14.154Z,1320
2017-03-04T09:32:23.747Z,1280
2017-03-04T09:33:33.713Z,1248
2017-03-04T09:34:42.929Z,1212
2017-03-04T09:35:52.923Z,1180
2017-03-04T09:37:02.518Z,1160
2017-03-04T09:38:12.874Z,1140
2017-03-04T09:39:23.269Z,1144
2017-03-04T09:40:33.230Z,1164
2017-03-04T09:41:42.435Z,1232
2017-03-04T09:42:51.585Z,1236
2017-03-04T09:44:01.190Z,1276
2017-03-04T09:45:10.794Z,1344
2017-03-04T09:46:20.779Z,1428
2017-03-04T09:47:30.332Z,1496
2017-03-04T09:48:39.919Z,1540
2017-03-04T09:49:49.510Z,1564
2017-03-04T09:50:59.116Z,1560
2017-03-04T09:52:08.716Z,1544
2017-03-04T09:53:18.292Z,1584
2017-03-04T09:54:27.891Z,1784
2017-03-04T09:55:38.257Z,2308
2017-03-04T09:56:47.477Z,2344
2017-03-04T09:57:57.462Z,2088
2017-03-04T09:59:07.775Z,2048
2017-03-04T10:00:17.743Z,2184
2017-03-04T10:01:27.331Z,2328
2017-03-04T10:02:37.328Z,2372
2017-03-04T10:03:47.332Z,2372
2017-03-04T10:04:57.324Z,2644
2017-03-04T10:06:07.301Z,3244
2017-03-04T10:07:16.522Z,3544
2017-03-04T10:08:26.499Z,3108
2017-03-04T10:09:35.715Z,4984
2017-03-04T10:10:45.332Z,4876
2017-03-04T10:11:55.326Z,7348
2017-03-04T10:13:04.940Z,7804
2017-03-04T10:14:14.837Z,6056
2017-03-04T10:15:24.426Z,6196
2017-03-04T10:16:33.262Z,5860
2017-03-04T10:17:42.456Z,5600
2017-03-04T10:18:52.011Z,4164
2017-03-04T10:20:01.605Z,3376
2017-03-04T10:21:11.579Z,2888
2017-03-04T10:22:21.564Z,2408
2017-03-04T10:23:31.150Z,2116
2017-03-04T10:24:39.993Z,1900
2017-03-04T10:25:50.400Z,1724
2017-03-04T10:27:00.387Z,1660
2017-03-04T10:28:09.203Z,1624
2017-03-04T10:29:18.443Z,1688
2017-03-04T10:30:27.985Z,1728
2017-03-04T10:31:37.554Z,1916
2017-03-04T10:32:47.131Z,2444
2017-03-04T10:33:56.326Z,3060
2017-03-04T10:35:06.417Z,3668
2017-03-04T10:36:16.372Z,5204
2017-03-04T10:37:25.563Z,10312
2017-03-04T10:38:35.930Z,28000
2017-03-04T10:39:45.510Z,30976
2017-03-04T10:40:55.503Z,29984
2017-03-04T10:42:05.080Z,26144
2017-03-04T10:43:14.641Z,23936
2017-03-04T10:44:23.859Z,18272
2017-03-04T10:45:32.684Z,16204
2017-03-04T10:46:41.497Z,14708
2017-03-04T10:47:50.645Z,10132
2017-03-04T10:48:59.797Z,10024
2017-03-04T10:50:09.388Z,10492
2017-03-04T10:51:19.015Z,9904
2017-03-04T10:52:28.634Z,8176
2017-03-04T10:53:38.611Z,6972
2017-03-04T10:54:48.173Z,6732
2017-03-04T10:55:57.380Z,6732
2017-03-04T10:57:08.087Z,6576
2017-03-04T10:58:18.432Z,7680
2017-03-04T10:59:28.425Z,19008
2017-03-04T11:00:38.354Z,14236
2017-03-04T11:01:47.169Z,9464
2017-03-04T11:02:57.094Z,6428
2017-03-04T11:04:06.665Z,6508
2017-03-04T11:05:16.224Z,5332
2017-03-04T11:06:26.193Z,4676
2017-03-04T11:07:34.996Z,4108
2017-03-04T11:08:45.356Z,3936
2017-03-04T11:09:55.341Z,3796
2017-03-04T11:11:04.891Z,3600
2017-03-04T11:12:14.436Z,3644
2017-03-04T11:13:24.012Z,4196
2017-03-04T11:14:33.575Z,4336
2017-03-04T11:15:42.777Z,4636
2017-03-04T11:16:51.627Z,5988
2017-03-04T11:18:02.007Z,7016
2017-03-04T11:19:12.392Z,7292
2017-03-04T11:20:22.388Z,7416
2017-03-04T11:21:31.603Z,7072
2017-03-04T11:22:41.623Z,5724
2017-03-04T11:23:51.629Z,5108
2017-03-04T11:25:01.422Z,5772
2017-03-04T11:26:11.048Z,6352
2017-03-04T11:27:20.260Z,6092
2017-03-04T11:28:29.479Z,7316
2017-03-04T11:29:39.878Z,6704
2017-03-04T11:30:49.481Z,6812
2017-03-04T11:31:58.725Z,7132
2017-03-04T11:33:08.310Z,5700
2017-03-04T11:34:18.298Z,5060
2017-03-04T11:35:27.839Z,5172
2017-03-04T11:36:37.760Z,4832
2017-03-04T11:37:46.953Z,5864
2017-03-04T11:38:56.504Z,5908
2017-03-04T11:40:05.294Z,6176
2017-03-04T11:41:15.307Z,7060
2017-03-04T11:42:24.904Z,12196
2017-03-04T11:43:34.917Z,15904
2017-03-04T11:44:43.762Z,13664
2017-03-04T11:45:54.125Z,12276
2017-03-04T11:47:04.104Z,12784
2017-03-04T11:48:14.097Z,11900
2017-03-04T11:49:23.705Z,19040
2017-03-04T11:50:33.685Z,17664
2017-03-04T11:51:43.272Z,17472
2017-03-04T11:52:53.600Z,25376
2017-03-04T11:54:02.796Z,25728
2017-03-04T11:55:12.414Z,25312
2017-03-04T11:56:21.612Z,22688
2017-03-04T11:57:32.376Z,22784
2017-03-04T11:58:42.961Z,20928
2017-03-04T11:59:52.186Z,17920
2017-03-04T12:01:01.381Z,15200
2017-03-04T12:02:10.955Z,10968
2017-03-04T12:03:20.949Z,8260
2017-03-04T12:04:31.304Z,6836
2017-03-04T12:05:41.294Z,4332
2017-03-04T12:06:50.891Z,3336
2017-03-04T12:08:00.889Z,2504
2017-03-04T12:09:10.518Z,2056
2017-03-04T12:10:19.741Z,1748
2017-03-04T12:11:29.342Z,1496
2017-03-04T12:12:39.718Z,1284
2017-03-04T12:13:49.299Z,1120
2017-03-04T12:14:58.854Z,1032
2017-03-04T12:16:09.201Z,972
2017-03-04T12:17:19.197Z,960
2017-03-04T12:18:27.985Z,976
2017-03-04T12:19:37.562Z,1000
2017-03-04T12:20:47.550Z,1028
2017-03-04T12:21:57.127Z,1040
2017-03-04T12:23:07.111Z,1100
2017-03-04T12:24:16.305Z,1176
2017-03-04T12:25:26.278Z,1232
2017-03-04T12:26:35.908Z,1316
2017-03-04T12:27:45.909Z,1428
2017-03-04T12:28:56.084Z,1504
2017-03-04T12:30:05.080Z,1576
2017-03-04T12:31:14.689Z,1676
2017-03-04T12:32:23.898Z,1808
2017-03-04T12:33:32.725Z,1860
2017-03-04T12:34:42.319Z,1864
2017-03-04T12:35:51.545Z,1888
2017-03-04T12:37:01.531Z,1916
2017-03-04T12:38:11.164Z,1960
2017-03-04T12:39:21.910Z,1980
2017-03-04T12:40:31.492Z,1920
2017-03-04T12:41:41.503Z,1928
2017-03-04T12:42:51.030Z,2108
2017-03-04T12:44:01.002Z,2396
2017-03-04T12:45:11.023Z,2504
2017-03-04T12:46:20.484Z,2420
2017-03-04T12:47:30.827Z,2200
2017-03-04T12:48:40.024Z,1988
2017-03-04T12:49:50.398Z,1824
2017-03-04T12:50:59.609Z,1580
2017-03-04T12:52:09.543Z,1348
2017-03-04T12:53:19.888Z,1228
2017-03-04T12:54:29.123Z,1192
2017-03-04T12:55:38.733Z,1140
2017-03-04T12:56:48.730Z,1068
2017-03-04T12:57:57.944Z,1024
2017-03-04T12:59:07.486Z,1000
2017-03-04T13:00:17.493Z,988
2017-03-04T13:01:27.080Z,1020
2017-03-04T13:02:36.285Z,1092
2017-03-04T13:03:45.438Z,1196
2017-03-04T13:04:54.610Z,1356
2017-03-04T13:06:03.839Z,1544
2017-03-04T13:07:13.086Z,1704
2017-03-04T13:08:22.667Z,1744
2017-03-04T13:09:31.818Z,1748
2017-03-04T13:10:40.649Z,1696
2017-03-04T13:11:50.636Z,1632
2017-03-04T13:12:59.845Z,1600
2017-03-04T13:14:09.827Z,1596
2017-03-04T13:15:18.647Z,1572
2017-03-04T13:16:28.644Z,1516
2017-03-04T13:17:38.648Z,1452
2017-03-04T13:18:47.792Z,1412
2017-03-04T13:19:56.929Z,1376
2017-03-04T13:21:06.450Z,1320
2017-03-04T13:22:16.042Z,1276
2017-03-04T13:23:26.369Z,1272
2017-03-04T13:24:35.276Z,1320
2017-03-04T13:25:45.648Z,1436
2017-03-04T13:26:55.559Z,1556
2017-03-04T13:28:05.086Z,1572
2017-03-04T13:29:15.062Z,1564
2017-03-04T13:30:24.843Z,1572
2017-03-04T13:31:34.024Z,1620
2017-03-04T13:32:43.617Z,1668
2017-03-04T13:33:53.614Z,1720
2017-03-04T13:35:03.985Z,1772
2017-03-04T13:36:13.187Z,1840
2017-03-04T13:37:22.719Z,1912
2017-03-04T13:38:31.879Z,1908
2017-03-04T13:39:41.088Z,1868
2017-03-04T13:40:50.708Z,1792
2017-03-04T13:42:00.669Z,1708
2017-03-04T13:43:10.475Z,1676
2017-03-04T13:44:20.067Z,1648
2017-03-04T13:45:29.655Z,1648
2017-03-04T13:46:39.251Z,1684
2017-03-04T13:47:49.170Z,1732
2017-03-04T13:48:59.131Z,1728
2017-03-04T13:50:09.507Z,1736
2017-03-04T13:51:19.443Z,1724
2017-03-04T13:52:28.589Z,1624
2017-03-04T13:53:38.119Z,1604
2017-03-04T13:54:47.314Z,1568
2017-03-04T13:55:56.528Z,1524
2017-03-04T13:57:06.543Z,1512
2017-03-04T13:58:16.161Z,1468
2017-03-04T13:59:25.691Z,1428
2017-03-04T14:00:34.879Z,1368
2017-03-04T14:01:43.686Z,1324
2017-03-04T14:02:53.239Z,1304
2017-03-04T14:04:02.375Z,1292
2017-03-04T14:05:13.059Z,1308
2017-03-04T14:06:23.036Z,1324
2017-03-04T14:07:32.628Z,1312
2017-03-04T14:08:43.356Z,1268
2017-03-04T14:09:52.543Z,1224
2017-03-04T14:11:01.755Z,1192
2017-03-04T14:12:12.107Z,1220
2017-03-04T14:13:22.069Z,1248
2017-03-04T14:14:31.617Z,1236
2017-03-04T14:15:41.562Z,1224
2017-03-04T14:16:50.762Z,1240
2017-03-04T14:18:00.396Z,1252
2017-03-04T14:19:10.320Z,1232
2017-03-04T14:20:20.324Z,1176
2017-03-04T14:21:29.852Z,1080
2017-03-04T14:22:39.876Z,996
2017-03-04T14:23:49.874Z,932
2017-03-04T14:24:59.469Z,872
2017-03-04T14:26:09.469Z,828
2017-03-04T14:27:18.281Z,776
2017-03-04T14:28:27.487Z,732
2017-03-04T14:29:37.880Z,708
2017-03-04T14:30:47.463Z,704
2017-03-04T14:31:57.398Z,744
2017-03-04T14:33:07.397Z,804
2017-03-04T14:34:17.806Z,852
2017-03-04T14:35:27.423Z,884
2017-03-04T14:36:36.971Z,916
2017-03-04T14:37:46.556Z,956
2017-03-04T14:38:55.809Z,992
2017-03-04T14:40:04.967Z,996
2017-03-04T14:41:14.588Z,972
2017-03-04T14:42:23.805Z,920
2017-03-04T14:43:33.008Z,880
2017-03-04T14:44:43.367Z,856
2017-03-04T14:45:53.369Z,836
2017-03-04T14:47:02.582Z,832
2017-03-04T14:48:12.144Z,836
2017-03-04T14:49:21.717Z,840
2017-03-04T14:50:30.555Z,840
2017-03-04T14:51:40.361Z,836
2017-03-04T14:52:49.948Z,832
2017-03-04T14:53:59.541Z,840
2017-03-04T14:55:09.518Z,852
2017-03-04T14:56:18.752Z,860
2017-03-04T14:57:27.806Z,864
2017-03-04T14:58:37.393Z,868
2017-03-04T14:59:47.389Z,856
2017-03-04T15:00:56.213Z,856
2017-03-04T15:02:05.797Z,884
2017-03-04T15:03:14.952Z,900
2017-03-04T15:04:24.956Z,900
2017-03-04T15:05:34.556Z,844
2017-03-04T15:06:43.711Z,788
2017-03-04T15:07:53.274Z,736
2017-03-04T15:09:02.493Z,696
2017-03-04T15:10:12.111Z,676
2017-03-04T15:11:22.427Z,672
2017-03-04T15:12:31.614Z,680
2017-03-04T15:13:42.395Z,696
2017-03-04T15:14:52.355Z,684
2017-03-04T15:16:01.534Z,664
2017-03-04T15:17:12.055Z,664
2017-03-04T15:18:21.291Z,676
2017-03-04T15:19:31.289Z,680
2017-03-04T15:20:40.908Z,672
2017-03-04T15:21:50.514Z,676
2017-03-04T15:22:59.737Z,680
2017-03-04T15:24:09.351Z,700
2017-03-04T15:25:19.342Z,740
2017-03-04T15:26:28.526Z,784
2017-03-04T15:27:37.729Z,804
2017-03-04T15:28:47.323Z,788
2017-03-04T15:29:57.319Z,756
2017-03-04T15:31:07.298Z,720
2017-03-04T15:32:16.431Z,680
2017-03-04T15:33:26.015Z,648
2017-03-04T15:34:35.223Z,620
2017-03-04T15:35:45.217Z,608
2017-03-04T15:36:55.182Z,604
2017-03-04T15:38:04.525Z,600
2017-03-04T15:39:14.488Z,584
2017-03-04T15:40:24.064Z,564
2017-03-04T15:41:33.270Z,552
2017-03-04T15:42:42.480Z,536
2017-03-04T15:43:52.066Z,520
2017-03-04T15:45:00.852Z,512
2017-03-04T15:46:10.836Z,492
2017-03-04T15:47:20.815Z,480
2017-03-04T15:48:29.603Z,464
2017-03-04T15:49:39.201Z,456
2017-03-04T15:50:49.390Z,460
2017-03-04T15:51:59.003Z,452
2017-03-04T15:53:08.597Z,444
2017-03-04T15:54:17.420Z,432
2017-03-04T15:55:26.252Z,424
2017-03-04T15:56:36.002Z,412
2017-03-04T15:57:45.599Z,408
2017-03-04T15:58:54.819Z,396
2017-03-04T16:00:04.450Z,380
2017-03-04T16:01:14.027Z,368
2017-03-04T16:02:24.028Z,352
2017-03-04T16:03:33.624Z,336
2017-03-04T16:04:43.235Z,324
2017-03-04T16:05:52.779Z,308
2017-03-04T16:07:01.926Z,300
2017-03-04T16:08:11.508Z,288
2017-03-04T16:09:20.720Z,276
2017-03-04T16:10:31.031Z,264
2017-03-04T16:11:41.391Z,256